ADDS METAR Data INFO
IDs: Format: Raw Decoded Include TAF

Data at: 1717 UTC 23 Oct 2017

KDTL 231713Z AUTO 33020G29KT 10SM SCT019 SCT023 BKN050 07/03 A2988 RMK AO2 P0001
KDTL 231654Z AUTO 33023G28KT 10SM SCT016 BKN022 OVC048 07/04 A2987 RMK AO2
KDTL 231633Z AUTO 33019G25KT 10SM BKN020 OVC025 07/04 A2986 RMK AO2
KDTL 231613Z AUTO 33017G25KT 10SM BKN017 OVC021 06/05 A2984 RMK AO2
KDTL 231554Z AUTO 32017G26KT 7SM -RA SCT004 BKN015 06/05 A2983 RMK AO2
KDTL 231533Z AUTO 32014G22KT 5SM -DZ SCT005 OVC015 06/05 A2983 RMK AO2
KDTL 231513Z AUTO 32015G18KT 10SM BKN015 07/05 A2981 RMK AO2
KDTL 231454Z AUTO 30016G19KT 10SM OVC017 07/04 A2981 RMK AO2
KDTL 231433Z AUTO 29014G17KT 10SM OVC017 07/03 A2980 RMK AO2
KDTL 231413Z AUTO 29015G20KT 10SM OVC017 07/03 A2980 RMK AO2
KDTL 231358Z AUTO 30014G21KT 10SM OVC019 07/03 A2979 RMK AO2
KDTL 231333Z AUTO 29018G25KT 10SM SCT021 BKN026 07/03 A2978 RMK AO2
KDTL 231313Z AUTO 29015G23KT 10SM SCT027 07/03 A2977 RMK AO2
KDTL 231254Z AUTO 29015G24KT 10SM CLR 08/03 A2976 RMK AO2
KDTL 231233Z AUTO 28014G20KT 10SM CLR 08/03 A2975 RMK AO2
KDTL 231213Z AUTO 28012G23KT 10SM CLR 08/04 A2974 RMK AO2
KDTL 231154Z AUTO 29012G18KT 10SM CLR 09/04 A2973 RMK AO2
KDTL 231133Z AUTO 29014G23KT 10SM CLR 10/05 A2973 RMK AO2
KDTL 231113Z AUTO 29013KT 10SM SCT075 10/06 A2972 RMK AO2
KDTL 231054Z AUTO 28010KT 10SM SCT075 10/07 A2971 RMK AO2
KDTL 231033Z AUTO 28009KT 10SM SCT008 SCT014 SCT075 10/07 A2970 RMK AO2
KDTL 231013Z AUTO 27007KT 10SM RA SCT008 SCT014 BKN065 11/06 A2969 RMK AO2
KDTL 230954Z AUTO 27008KT 10SM SCT065 11/05 A2968 RMK AO2
KDTL 230933Z AUTO 28010G15KT 10SM CLR 11/05 A2968 RMK AO2
KDTL 230913Z AUTO 28009KT 10SM SCT065 12/05 A2967 RMK AO2
KDTL 230854Z AUTO 27010G21KT 10SM CLR 12/05 A2967 RMK AO2
KDTL 230833Z AUTO 26011G16KT 10SM CLR 12/05 A2967 RMK AO2
KDTL 230813Z AUTO 25010G16KT 10SM SCT075 12/04 A2967 RMK AO2
KDTL 230754Z AUTO 24009KT 10SM CLR 12/04 A2966 RMK AO2
KDTL 230733Z AUTO 22011G15KT 10SM CLR 13/05 A2966 RMK AO2
KDTL 230713Z AUTO 22007KT 10SM CLR 12/05 A2965 RMK AO2
KDTL 230654Z AUTO 21008KT 10SM SCT005 SCT010 SCT014 12/06 A2966 RMK AO2
KDTL 230633Z AUTO 22010G19KT 10SM -RA SCT005 SCT012 BKN080 12/05 A2968 RMK AO2
KDTL 230613Z AUTO 20010G22KT 10SM -RA SCT009 SCT070 12/05 A2968 RMK AO2
KDTL 230554Z AUTO 22010KT 10SM CLR 14/02 A2968 RMK AO2
KDTL 230533Z AUTO 21011KT 10SM CLR 14/01 A2968 RMK AO2
KDTL 230513Z AUTO 19010KT 10SM CLR 14/01 A2968 RMK AO2
KDTL 230454Z AUTO 20009KT 10SM CLR 13/00 A2969 RMK AO2
KDTL 230433Z AUTO 20009KT 10SM CLR 14/00 A2969 RMK AO2
KDTL 230413Z AUTO 20010G17KT 10SM SCT085 14/00 A2970 RMK AO2
KDTL 230353Z AUTO 21011KT 10SM CLR 15/00 A2971 RMK AO2
KDTL 230334Z AUTO 20011KT 10SM CLR 15/00 A2971 RMK AO2
KDTL 230313Z AUTO 20010KT 10SM CLR 15/00 A2973 RMK AO2
KDTL 230253Z AUTO 21011G17KT 10SM CLR 15/00 A2974 RMK AO2
KDTL 230234Z AUTO 20011G14KT 10SM CLR 15/00 A2974 RMK AO2
KDTL 230213Z AUTO 21009KT 10SM CLR 15/00 A2975 RMK AO2
KDTL 230153Z AUTO 21009KT 10SM CLR 14/00 A2975 RMK AO2
KDTL 230134Z AUTO 20008KT 10SM CLR 14/00 A2976 RMK AO2
KDTL 230113Z AUTO 19009KT 10SM CLR 15/00 A2975 RMK AO2
KDTL 230053Z AUTO 20008KT 10SM CLR 15/00 A2977 RMK AO2
KDTL 230034Z AUTO 20009G15KT 10SM CLR 15/00 A2977 RMK AO2
KDTL 230013Z AUTO 20010G16KT 10SM CLR 15/M01 A2977 RMK AO2
KDTL 222353Z AUTO 23015G27KT 10SM CLR 15/M01 A2978 RMK AO2
KDTL 222334Z AUTO 22012G18KT 10SM CLR 15/M01 A2979 RMK AO2
KDTL 222313Z AUTO 20006KT 10SM CLR 14/00 A2979 RMK AO2
KDTL 222253Z AUTO 20009KT 10SM CLR 14/M01 A2978 RMK AO2
KDTL 222233Z AUTO 21008KT 10SM CLR 15/M01 A2978 RMK AO2
KDTL 222213Z AUTO 22008KT 10SM CLR 15/M01 A2979 RMK AO2
KDTL 222154Z AUTO 22010G17KT 10SM CLR 15/M02 A2980 RMK AO2
KDTL 222133Z AUTO 23011KT 10SM CLR 16/M02 A2980 RMK AO2
KDTL 222113Z AUTO 22013G19KT 10SM CLR 15/M03 A2981 RMK AO2
KDTL 222054Z AUTO 23016G21KT 10SM CLR 16/M02 A2981 RMK AO2
KDTL 222033Z AUTO 23016G23KT 10SM CLR 16/M02 A2982 RMK AO2
KDTL 222013Z AUTO 23016G22KT 10SM CLR 16/M02 A2982 RMK AO2
KDTL 221954Z AUTO 23014G22KT 10SM CLR 16/M01 A2983 RMK AO2
KDTL 221933Z AUTO 25015G20KT 10SM CLR 16/M01 A2984 RMK AO2
KDTL 221913Z AUTO 23013G18KT 10SM CLR 15/M01 A2985 RMK AO2
KDTL 221854Z AUTO 21013G17KT 10SM CLR 15/00 A2986 RMK AO2
KDTL 221833Z AUTO 24012KT 10SM CLR 14/00 A2987 RMK AO2
KDTL 221813Z AUTO 24008G16KT 10SM CLR 13/00 A2988 RMK AO2
KDTL 221754Z AUTO 24011G18KT 10SM CLR 13/00 A2989 RMK AO2
KDTL 221733Z AUTO 24012KT 10SM CLR 13/00 A2990 RMK AO2
KDTL 221713Z AUTO 24012G19KT 10SM CLR 12/00 A2990 RMK AO2
KDTL 221654Z AUTO 24011G16KT 10SM CLR 12/00 A2990 RMK AO2
KDTL 221633Z AUTO 24009G14KT 10SM CLR 12/01 A2990 RMK AO2
KDTL 221613Z AUTO 25009KT 10SM CLR 11/01 A2990 RMK AO2
KDTL 221554Z AUTO 25008KT 10SM CLR 10/01 A2991 RMK AO2
KDTL 221533Z AUTO 26007KT 10SM CLR 09/01 A2990 RMK AO2
KDTL 221513Z AUTO 25008KT 10SM CLR 08/02 A2989 RMK AO2
KDTL 221454Z AUTO 25006KT 10SM CLR 07/02 A2989 RMK AO2
KDTL 221433Z AUTO 24008KT 10SM CLR 06/02 A2989 RMK AO2
KDTL 221413Z AUTO 25008KT 10SM CLR 06/01 A2989 RMK AO2
KDTL 221354Z AUTO 24008KT 10SM CLR 06/01 A2990 RMK AO2
KDTL 221333Z AUTO 23007KT 10SM CLR 05/01 A2990 RMK AO2
KDTL 221313Z AUTO 23008KT 10SM CLR 06/01 A2989 RMK AO2
KDTL 221254Z AUTO 24008KT 10SM CLR 06/01 A2987 RMK AO2
KDTL 221233Z AUTO 25006KT 10SM CLR 06/01 A2986 RMK AO2
KDTL 221213Z AUTO 26007KT 10SM CLR 06/01 A2985 RMK AO2
KDTL 221154Z AUTO 26009KT 10SM CLR 06/01 A2984 RMK AO2
KDTL 221133Z AUTO 26009G14KT 10SM CLR 07/02 A2985 RMK AO2
KDTL 221113Z AUTO 26011KT 10SM CLR 07/02 A2984 RMK AO2
KDTL 221054Z AUTO 27011G15KT 10SM CLR 07/02 A2984 RMK AO2
KDTL 221033Z AUTO 26010G15KT 10SM CLR 07/02 A2984 RMK AO2
KDTL 221013Z AUTO 26010KT 10SM CLR 07/02 A2984 RMK AO2
KDTL 220954Z AUTO 26011G17KT 10SM CLR 07/02 A2983 RMK AO2
KDTL 220933Z AUTO 26008KT 10SM CLR 07/03 A2981 RMK AO2
KDTL 220913Z AUTO 25007KT 10SM SCT048 07/03 A2981 RMK AO2
KDTL 220854Z AUTO 25009KT 10SM BKN048 08/03 A2981 RMK AO2
KDTL 220833Z AUTO 26010G15KT 10SM BKN050 08/03 A2981 RMK AO2
KDTL 220813Z AUTO 26008G14KT 10SM SCT050 08/03 A2981 RMK AO2
KDTL 220754Z AUTO 27010G16KT 10SM CLR 08/03 A2981 RMK AO2
KDTL 220733Z AUTO 26012KT 10SM SCT048 SCT065 08/03 A2980 RMK AO2
KDTL 220713Z AUTO 26012G20KT 10SM BKN046 08/03 A2978 RMK AO2
KDTL 220654Z AUTO 27012G17KT 10SM SCT035 SCT042 BKN060 09/04 A2977 RMK AO2
KDTL 220633Z AUTO 27011G15KT 10SM SCT038 BKN047 BKN060 09/04 A2977 RMK AO2
KDTL 220613Z AUTO 26012G17KT 10SM SCT035 BKN042 OVC060 10/04 A2978 RMK AO2
KDTL 220554Z AUTO 25011G15KT 10SM BKN035 BKN045 BKN055 10/05 A2976 RMK AO2
KDTL 220533Z AUTO 24010KT 10SM SCT035 SCT043 BKN055 10/05 A2973 RMK AO2